createdAt,value
2023-04-25T00:02:10.124Z,11.88
2023-04-25T00:04:39.666Z,8.80
2023-04-25T00:07:06.824Z,8.13
2023-04-25T00:09:33.755Z,9.75
2023-04-25T00:12:00.582Z,10.48
2023-04-25T00:14:28.995Z,12.73
2023-04-25T00:16:56.107Z,12.60
2023-04-25T00:19:23.158Z,13.10
2023-04-25T00:21:50.356Z,9.48
2023-04-25T00:24:17.393Z,9.25
2023-04-25T00:26:44.248Z,7.63
2023-04-25T00:29:11.551Z,11.25
2023-04-25T00:31:41.484Z,10.05
2023-04-25T00:34:09.572Z,9.50
2023-04-25T00:36:36.395Z,11.05
2023-04-25T00:39:04.064Z,9.80
2023-04-25T00:41:31.724Z,11.60
2023-04-25T00:43:59.205Z,10.38
2023-04-25T00:46:26.001Z,11.35
2023-04-25T00:48:52.943Z,12.60
2023-04-25T00:51:21.853Z,11.52
2023-04-25T00:53:51.557Z,11.13
2023-04-25T00:56:19.059Z,10.98
2023-04-25T00:58:45.980Z,11.10
2023-04-25T01:01:13.164Z,13.75
2023-04-25T01:03:44.225Z,12.90
2023-04-25T01:06:11.921Z,14.25
2023-04-25T01:08:40.121Z,10.80
2023-04-25T01:11:07.335Z,11.60
2023-04-25T01:13:34.897Z,12.52
2023-04-25T01:16:02.671Z,11.60
2023-04-25T01:18:29.767Z,9.82
2023-04-25T01:24:24.938Z,11.63
2023-04-25T01:26:52.136Z,11.52
2023-04-25T01:29:19.840Z,12.52
2023-04-25T01:31:47.346Z,12.15
2023-04-25T01:34:14.561Z,13.02
2023-04-25T01:36:41.802Z,12.35
2023-04-25T01:39:09.040Z,11.02
2023-04-25T01:41:36.132Z,11.90
2023-04-25T01:44:03.146Z,9.85
2023-04-25T01:46:32.022Z,10.90
2023-04-25T01:48:58.997Z,11.90
2023-04-25T01:51:25.901Z,10.48
2023-04-25T01:53:53.085Z,8.48
2023-04-25T01:56:20.305Z,10.43
2023-04-25T01:58:47.215Z,8.05
2023-04-25T02:01:14.274Z,7.63
2023-04-25T02:03:41.528Z,7.93
2023-04-25T02:06:08.561Z,10.32
2023-04-25T02:08:35.448Z,10.30
2023-04-25T02:11:02.302Z,10.27
2023-04-25T02:13:29.143Z,14.05
2023-04-25T02:15:56.153Z,10.57
2023-04-25T02:18:23.025Z,11.52
2023-04-25T02:20:50.117Z,14.73
2023-04-25T02:23:16.824Z,10.70
2023-04-25T02:25:43.605Z,14.35
2023-04-25T02:28:10.651Z,10.63
2023-04-25T02:30:37.664Z,11.23
2023-04-25T02:33:04.455Z,10.23
2023-04-25T02:35:31.231Z,8.48
2023-04-25T02:37:58.613Z,11.38
2023-04-25T02:40:25.336Z,12.60
2023-04-25T02:42:53.028Z,10.90
2023-04-25T02:45:19.787Z,12.57
2023-04-25T02:47:46.557Z,13.95
2023-04-25T02:50:13.665Z,11.07
2023-04-25T02:52:40.414Z,12.63
2023-04-25T02:55:07.677Z,10.82
2023-04-25T02:57:34.511Z,15.65
2023-04-25T03:00:01.344Z,10.27
2023-04-25T03:02:28.256Z,12.63
2023-04-25T03:04:55.249Z,10.23
2023-04-25T03:07:22.087Z,8.93
2023-04-25T03:09:49.049Z,10.45
2023-04-25T03:12:17.174Z,9.90
2023-04-25T03:14:43.892Z,8.93
2023-04-25T03:17:11.653Z,11.10
2023-04-25T03:19:38.464Z,11.25
2023-04-25T03:22:05.293Z,11.30
2023-04-25T03:24:31.999Z,13.95
2023-04-25T03:26:58.723Z,8.27
2023-04-25T03:29:27.745Z,9.55
2023-04-25T03:31:54.629Z,8.90
2023-04-25T03:34:22.691Z,12.32
2023-04-25T03:36:49.516Z,10.68
2023-04-25T03:39:16.442Z,11.45
2023-04-25T03:41:43.265Z,13.40
2023-04-25T03:44:10.403Z,10.63
2023-04-25T03:46:37.244Z,15.52
2023-04-25T03:49:04.013Z,15.90
2023-04-25T03:51:32.191Z,12.95
2023-04-25T03:53:59.875Z,12.70
2023-04-25T03:56:26.821Z,11.38
2023-04-25T03:58:53.866Z,12.48
2023-04-25T04:01:22.103Z,9.50
2023-04-25T04:03:48.925Z,8.48
2023-04-25T04:06:16.479Z,11.90
2023-04-25T04:08:43.524Z,10.65
2023-04-25T04:11:10.440Z,9.48
2023-04-25T04:13:37.242Z,10.07
2023-04-25T04:16:05.627Z,9.40
2023-04-25T04:18:32.712Z,9.73
2023-04-25T04:21:00.034Z,13.27
2023-04-25T04:23:28.487Z,11.25
2023-04-25T04:25:57.699Z,9.85
2023-04-25T04:28:24.947Z,15.52
2023-04-25T04:30:52.496Z,7.93
2023-04-25T04:33:22.705Z,10.50
2023-04-25T04:35:49.983Z,11.27
2023-04-25T04:38:17.188Z,9.32
2023-04-25T04:40:44.440Z,10.73
2023-04-25T04:43:11.813Z,9.43
2023-04-25T04:45:41.876Z,13.07
2023-04-25T04:48:08.733Z,8.90
2023-04-25T04:50:36.908Z,7.25
2023-04-25T04:53:05.606Z,8.77
2023-04-25T04:55:32.409Z,8.95
2023-04-25T04:57:59.220Z,9.27
2023-04-25T05:00:29.128Z,8.27
2023-04-25T05:02:57.416Z,10.18
2023-04-25T05:05:24.648Z,10.93
2023-04-25T05:07:51.433Z,12.38
2023-04-25T05:10:19.733Z,10.13
2023-04-25T05:12:46.723Z,11.35
2023-04-25T05:15:13.520Z,13.90
2023-04-25T05:17:41.018Z,12.38
2023-04-25T05:20:10.312Z,14.23
2023-04-25T05:22:37.345Z,12.23
2023-04-25T05:25:05.005Z,11.98
2023-04-25T05:27:31.802Z,11.52
2023-04-25T05:29:58.607Z,15.07
2023-04-25T05:32:26.675Z,13.98
2023-04-25T05:34:54.072Z,10.77
2023-04-25T05:37:20.860Z,14.80
2023-04-25T05:39:47.834Z,11.43
2023-04-25T05:42:14.636Z,13.10
2023-04-25T05:44:41.399Z,12.52
2023-04-25T05:47:08.180Z,13.82
2023-04-25T05:49:36.028Z,16.00
2023-04-25T05:52:02.784Z,22.17
2023-04-25T05:54:30.362Z,15.50
2023-04-25T05:57:03.698Z,15.73
2023-04-25T05:59:31.592Z,15.23
2023-04-25T06:01:59.073Z,12.88
2023-04-25T06:04:27.090Z,16.55
2023-04-25T06:06:54.085Z,13.73
2023-04-25T06:09:22.380Z,15.50
2023-04-25T06:11:49.111Z,14.15
2023-04-25T06:14:15.870Z,16.30
2023-04-25T06:16:42.741Z,16.67
2023-04-25T06:19:09.819Z,16.15
2023-04-25T06:21:37.316Z,14.65
2023-04-25T06:24:05.378Z,10.77
2023-04-25T06:26:32.572Z,10.57
2023-04-25T06:29:00.031Z,10.40
2023-04-25T06:31:27.456Z,13.32
2023-04-25T06:33:56.124Z,11.07
2023-04-25T06:36:27.149Z,10.63
2023-04-25T06:38:54.279Z,9.65
2023-04-25T06:41:22.211Z,8.95
2023-04-25T06:43:48.963Z,9.43
2023-04-25T06:46:15.949Z,8.18
2023-04-25T06:48:42.980Z,7.70
2023-04-25T06:51:09.699Z,8.23
2023-04-25T06:53:36.870Z,8.02
2023-04-25T06:56:04.406Z,10.65
2023-04-25T06:58:31.738Z,8.25
2023-04-25T07:00:59.418Z,7.28
2023-04-25T07:03:26.551Z,7.75
2023-04-25T07:05:53.489Z,5.40
2023-04-25T07:08:21.072Z,8.02
2023-04-25T07:10:49.603Z,8.40
2023-04-25T07:13:16.875Z,9.90
2023-04-25T07:15:44.987Z,7.93
2023-04-25T07:18:13.103Z,10.75
2023-04-25T07:20:40.090Z,7.13
2023-04-25T07:23:07.019Z,8.68
2023-04-25T07:25:33.896Z,8.90
2023-04-25T07:28:01.351Z,6.50
2023-04-25T07:30:28.417Z,7.57
2023-04-25T07:32:55.983Z,6.13
2023-04-25T07:35:22.958Z,5.90
2023-04-25T07:37:49.804Z,9.07
2023-04-25T07:40:17.781Z,8.02
2023-04-25T07:42:44.567Z,8.23
2023-04-25T07:45:12.475Z,5.57
2023-04-25T07:47:39.976Z,6.70
2023-04-25T07:50:08.096Z,7.30
2023-04-25T07:52:34.953Z,8.57
2023-04-25T07:55:01.873Z,6.13
2023-04-25T07:57:28.866Z,6.50
2023-04-25T07:59:55.659Z,5.53
2023-04-25T08:02:22.416Z,7.05
2023-04-25T08:04:51.012Z,6.50
2023-04-25T08:07:18.185Z,4.63
2023-04-25T08:09:45.116Z,4.40
2023-04-25T08:12:12.375Z,3.92
2023-04-25T08:14:41.131Z,3.13
2023-04-25T08:17:07.958Z,4.63
2023-04-25T08:19:34.727Z,4.25
2023-04-25T08:22:01.600Z,3.15
2023-04-25T08:24:28.947Z,3.25
2023-04-25T08:26:56.799Z,4.70
2023-04-25T08:29:25.396Z,8.73
2023-04-25T08:31:54.075Z,6.70
2023-04-25T08:34:22.254Z,5.35
2023-04-25T08:36:49.317Z,10.40
2023-04-25T08:39:16.175Z,9.38
2023-04-25T08:41:43.194Z,5.82
2023-04-25T08:44:12.767Z,5.63
2023-04-25T08:46:43.585Z,9.70
2023-04-25T08:49:10.618Z,8.35
2023-04-25T08:51:46.702Z,4.75
2023-04-25T08:56:47.032Z,11.10
2023-04-25T08:59:14.029Z,11.57
2023-04-25T09:01:41.395Z,6.15
2023-04-25T09:04:08.604Z,6.63
2023-04-25T09:06:36.465Z,4.68
2023-04-25T09:09:06.011Z,10.15
2023-04-25T09:11:34.106Z,10.18
2023-04-25T09:14:22.119Z,10.90
2023-04-25T09:16:58.935Z,8.88
2023-04-25T09:19:39.825Z,6.32
2023-04-25T09:22:08.540Z,31.85
2023-04-25T09:24:47.265Z,12.93
2023-04-25T09:27:21.183Z,19.88
2023-04-25T09:29:48.030Z,7.22
2023-04-25T09:32:20.981Z,7.22
2023-04-25T09:34:53.806Z,11.77
2023-04-25T09:37:28.398Z,5.10
2023-04-25T09:40:06.811Z,6.70
2023-04-25T09:42:35.890Z,6.15
2023-04-25T09:45:03.547Z,9.07
2023-04-25T09:47:31.058Z,6.30
2023-04-25T09:49:57.879Z,8.10
2023-04-25T09:52:26.335Z,7.05
2023-04-25T09:54:55.038Z,8.10
2023-04-25T09:57:24.105Z,7.80
2023-04-25T09:59:53.415Z,8.60
2023-04-25T10:02:22.589Z,7.43
2023-04-25T10:04:54.415Z,8.63
2023-04-25T10:07:27.629Z,8.63
2023-04-25T10:10:03.108Z,4.93
2023-04-25T10:12:30.536Z,7.90
2023-04-25T10:14:58.706Z,6.90
2023-04-25T10:17:26.239Z,6.07
2023-04-25T10:19:53.424Z,8.27
2023-04-25T10:22:35.627Z,5.97
2023-04-25T10:25:05.559Z,7.88
2023-04-25T10:27:32.909Z,6.22
2023-04-25T10:30:24.289Z,9.20
2023-04-25T10:32:52.891Z,10.15
2023-04-25T10:35:25.804Z,6.97
2023-04-25T10:38:19.292Z,10.13
2023-04-25T10:41:05.245Z,6.97
2023-04-25T10:43:42.816Z,5.03
2023-04-25T10:46:27.179Z,5.90
2023-04-25T10:51:26.761Z,5.55
2023-04-25T10:54:11.652Z,6.80
2023-04-25T10:56:45.660Z,6.07
2023-04-25T10:59:14.734Z,7.97
2023-04-25T11:01:43.357Z,8.02
2023-04-25T11:04:37.441Z,7.95
2023-04-25T11:07:36.347Z,10.00
2023-04-25T11:10:07.536Z,9.95
2023-04-25T11:12:34.647Z,8.63
2023-04-25T11:15:06.654Z,4.75
2023-04-25T11:17:34.492Z,6.93
2023-04-25T11:20:02.005Z,8.40
2023-04-25T11:22:29.246Z,6.68
2023-04-25T11:24:56.287Z,6.28
2023-04-25T11:27:23.735Z,8.68
2023-04-25T11:29:51.692Z,8.65
2023-04-25T11:32:21.460Z,8.30
2023-04-25T11:34:48.834Z,9.55
2023-04-25T11:37:16.147Z,12.57
2023-04-25T11:39:50.269Z,8.13
2023-04-25T11:42:18.892Z,8.55
2023-04-25T11:44:46.002Z,8.50
2023-04-25T11:47:13.051Z,5.65
2023-04-25T11:49:39.946Z,10.52
2023-04-25T11:52:08.692Z,10.35
2023-04-25T11:54:38.779Z,7.47
2023-04-25T11:57:06.136Z,9.68
2023-04-25T11:59:33.289Z,9.82
2023-04-25T12:02:02.937Z,10.25
2023-04-25T12:04:32.513Z,8.05
2023-04-25T12:07:01.876Z,6.95
2023-04-25T12:09:30.953Z,8.18
2023-04-25T12:12:05.242Z,7.75
2023-04-25T12:14:34.849Z,6.88
2023-04-25T12:17:03.866Z,5.53
2023-04-25T12:19:35.503Z,3.50
2023-04-25T12:22:21.470Z,6.40
2023-04-25T12:24:48.530Z,7.30
2023-04-25T12:27:21.306Z,7.25
2023-04-25T12:29:58.400Z,4.35
2023-04-25T12:32:25.651Z,6.90
2023-04-25T12:34:52.473Z,7.40
2023-04-25T12:37:19.472Z,5.35
2023-04-25T12:39:47.366Z,7.35
2023-04-25T12:42:14.156Z,6.38
2023-04-25T12:44:41.819Z,5.78
2023-04-25T12:47:09.218Z,7.40
2023-04-25T12:49:36.203Z,5.25
2023-04-25T12:52:02.999Z,5.47
2023-04-25T12:54:29.838Z,4.78
2023-04-25T12:56:56.831Z,6.72
2023-04-25T12:59:23.666Z,2.38
2023-04-25T13:01:50.808Z,2.75
2023-04-25T13:04:17.758Z,4.00
2023-04-25T13:06:44.835Z,5.13
2023-04-25T13:09:13.926Z,6.43
2023-04-25T13:11:42.065Z,4.13
2023-04-25T13:14:09.257Z,7.75
2023-04-25T13:16:36.928Z,6.13
2023-04-25T13:19:04.104Z,3.22
2023-04-25T13:21:33.694Z,5.90
2023-04-25T13:24:00.946Z,4.60
2023-04-25T13:26:27.961Z,6.28
2023-04-25T13:28:54.857Z,7.88
2023-04-25T13:31:22.455Z,6.32
2023-04-25T13:33:50.053Z,5.30
2023-04-25T13:36:17.304Z,4.43
2023-04-25T13:38:45.373Z,6.15
2023-04-25T13:41:17.094Z,4.65
2023-04-25T13:43:44.015Z,5.40
2023-04-25T13:46:30.030Z,2.53
2023-04-25T13:49:06.098Z,3.60
2023-04-25T13:51:37.055Z,4.35
2023-04-25T13:54:04.185Z,2.55
2023-04-25T13:56:31.268Z,5.13
2023-04-25T13:58:58.278Z,5.13
2023-04-25T14:01:25.075Z,2.13
2023-04-25T14:03:52.103Z,3.63
2023-04-25T14:06:24.034Z,4.30
2023-04-25T14:08:51.628Z,4.68
2023-04-25T14:11:19.635Z,4.93
2023-04-25T14:13:47.143Z,3.05
2023-04-25T14:16:13.925Z,3.13
2023-04-25T14:18:40.734Z,2.88
2023-04-25T14:21:07.462Z,4.35
2023-04-25T14:23:34.141Z,6.65
2023-04-25T14:26:00.876Z,5.85
2023-04-25T14:28:27.662Z,5.00
2023-04-25T14:30:54.450Z,5.28
2023-04-25T14:33:21.769Z,3.08
2023-04-25T14:35:51.539Z,7.25
2023-04-25T14:38:18.425Z,5.78
2023-04-25T14:40:45.347Z,4.18
2023-04-25T14:43:12.341Z,3.53
2023-04-25T14:45:39.035Z,2.58
2023-04-25T14:48:06.183Z,4.45
2023-04-25T14:50:33.701Z,3.50
2023-04-25T14:53:01.899Z,3.10
2023-04-25T14:55:29.259Z,3.30
2023-04-25T14:57:58.695Z,4.20
2023-04-25T15:00:28.302Z,2.28
2023-04-25T15:03:01.837Z,3.65
2023-04-25T15:05:32.437Z,5.35
2023-04-25T15:07:59.723Z,4.38
2023-04-25T15:10:26.968Z,4.60
2023-04-25T15:12:54.990Z,3.08
2023-04-25T15:15:26.553Z,2.25
2023-04-25T15:17:57.217Z,3.92
2023-04-25T15:20:25.768Z,4.00
2023-04-25T15:22:52.690Z,2.67
2023-04-25T15:25:19.442Z,5.30
2023-04-25T15:27:48.119Z,3.75
2023-04-25T15:30:18.541Z,3.45
2023-04-25T15:32:46.559Z,5.03
2023-04-25T15:35:14.533Z,4.80
2023-04-25T15:37:41.769Z,3.75
2023-04-25T15:40:12.335Z,3.15
2023-04-25T15:42:57.214Z,3.83
2023-04-25T15:45:26.501Z,5.20
2023-04-25T15:47:55.494Z,3.70
2023-04-25T15:50:22.887Z,4.88
2023-04-25T15:52:50.858Z,4.93
2023-04-25T15:55:18.708Z,4.20
2023-04-25T15:57:45.758Z,3.97
2023-04-25T16:00:15.383Z,2.80
2023-04-25T16:02:44.230Z,3.47
2023-04-25T16:05:15.667Z,4.97
2023-04-25T16:07:43.908Z,5.05
2023-04-25T16:10:12.023Z,3.33
2023-04-25T16:12:40.203Z,4.15
2023-04-25T16:15:08.258Z,3.47
2023-04-25T16:17:38.640Z,6.53
2023-04-25T16:20:10.579Z,2.88
2023-04-25T16:22:42.249Z,4.97
2023-04-25T16:25:15.163Z,4.60
2023-04-25T16:27:42.099Z,3.08
2023-04-25T16:30:10.603Z,2.78
2023-04-25T16:32:38.448Z,4.38
2023-04-25T16:35:05.612Z,3.05
2023-04-25T16:37:35.836Z,3.42
2023-04-25T16:40:03.092Z,2.72
2023-04-25T16:42:33.486Z,3.63
2023-04-25T16:45:01.702Z,3.55
2023-04-25T16:47:30.192Z,3.67
2023-04-25T16:49:57.951Z,2.70
2023-04-25T16:52:25.640Z,3.65
2023-04-25T16:54:52.646Z,4.55
2023-04-25T16:57:19.986Z,5.18
2023-04-25T16:59:47.985Z,5.55
2023-04-25T17:02:18.714Z,4.95
2023-04-25T17:04:47.208Z,4.30
2023-04-25T17:07:14.280Z,2.10
2023-04-25T17:09:41.314Z,3.17
2023-04-25T17:12:08.626Z,3.33
2023-04-25T17:14:36.344Z,3.70
2023-04-25T17:17:05.079Z,4.88
2023-04-25T17:19:33.035Z,2.35
2023-04-25T17:22:00.107Z,5.05
2023-04-25T17:24:27.217Z,3.47
2023-04-25T17:26:54.644Z,5.72
2023-04-25T17:29:23.996Z,3.65
2023-04-25T17:31:51.648Z,2.90
2023-04-25T17:34:18.937Z,4.13
2023-04-25T17:36:46.215Z,3.75
2023-04-25T17:39:15.094Z,2.83
2023-04-25T17:41:42.214Z,3.72
2023-04-25T17:44:09.367Z,3.47
2023-04-25T17:46:36.774Z,4.10
2023-04-25T17:49:03.646Z,5.05
2023-04-25T17:51:30.685Z,5.82
2023-04-25T17:53:57.616Z,4.25
2023-04-25T17:56:27.507Z,3.50
2023-04-25T17:58:54.673Z,3.45
2023-04-25T18:01:21.875Z,6.40
2023-04-25T18:03:50.500Z,3.15
2023-04-25T18:06:18.415Z,3.83
2023-04-25T18:08:45.485Z,3.88
2023-04-25T18:11:12.524Z,4.97
2023-04-25T18:13:39.747Z,2.22
2023-04-25T18:16:07.118Z,1.98
2023-04-25T18:18:36.374Z,3.05
2023-04-25T18:21:05.901Z,1.58
2023-04-25T18:23:34.477Z,2.25
2023-04-25T18:26:02.668Z,2.25
2023-04-25T18:28:29.984Z,3.20
2023-04-25T18:30:57.287Z,9.75
2023-04-25T18:33:25.565Z,2.72
2023-04-25T18:38:34.910Z,2.92
2023-04-25T18:41:18.372Z,2.40
2023-04-25T18:43:50.084Z,2.08
2023-04-25T18:46:18.057Z,5.72
2023-04-25T18:48:44.862Z,3.05
2023-04-25T18:51:11.544Z,2.53
2023-04-25T18:53:38.399Z,4.22
2023-04-25T18:56:05.561Z,3.55
2023-04-25T18:58:32.875Z,5.38
2023-04-25T19:01:00.439Z,4.32
2023-04-25T19:03:28.619Z,2.05
2023-04-25T19:05:56.278Z,2.45
2023-04-25T19:08:24.864Z,3.42
2023-04-25T19:10:57.647Z,5.13
2023-04-25T19:13:24.752Z,6.32
2023-04-25T19:15:51.463Z,4.18
2023-04-25T19:18:18.430Z,3.42
2023-04-25T19:20:46.697Z,2.25
2023-04-25T19:23:13.784Z,3.45
2023-04-25T19:25:40.683Z,3.65
2023-04-25T19:28:08.973Z,3.50
2023-04-25T19:30:35.775Z,3.78
2023-04-25T19:33:03.661Z,6.68
2023-04-25T19:35:32.980Z,3.55
2023-04-25T19:37:59.949Z,2.25
2023-04-25T19:40:27.228Z,4.22
2023-04-25T19:42:54.085Z,2.72
2023-04-25T19:45:21.068Z,3.13
2023-04-25T19:47:48.431Z,4.00
2023-04-25T19:50:15.303Z,2.58
2023-04-25T19:52:42.031Z,2.92
2023-04-25T19:55:10.340Z,2.10
2023-04-25T19:57:38.272Z,4.63
2023-04-25T20:00:11.114Z,4.72
2023-04-25T20:02:38.304Z,4.15
2023-04-25T20:05:07.231Z,7.47
2023-04-25T20:07:34.905Z,2.42
2023-04-25T20:10:07.032Z,3.85
2023-04-25T20:12:35.075Z,2.00
2023-04-25T20:15:02.158Z,3.55
2023-04-25T20:17:28.842Z,7.53
2023-04-25T20:19:56.506Z,6.13
2023-04-25T20:22:23.206Z,3.75
2023-04-25T20:24:49.912Z,2.63
2023-04-25T20:27:16.741Z,3.25
2023-04-25T20:29:43.454Z,5.68
2023-04-25T20:32:10.237Z,3.95
2023-04-25T20:34:37.509Z,5.13
2023-04-25T20:37:04.292Z,3.08
2023-04-25T20:39:33.735Z,2.90
2023-04-25T20:42:00.494Z,3.28
2023-04-25T20:44:27.272Z,5.45
2023-04-25T20:46:54.027Z,3.03
2023-04-25T20:49:21.173Z,4.80
2023-04-25T20:51:48.013Z,2.70
2023-04-25T20:54:14.853Z,4.78
2023-04-25T20:56:41.672Z,4.55
2023-04-25T20:59:09.421Z,4.18
2023-04-25T21:01:36.300Z,2.35
2023-04-25T21:04:03.374Z,3.90
2023-04-25T21:06:30.450Z,4.05
2023-04-25T21:08:57.269Z,5.45
2023-04-25T21:11:24.175Z,3.72
2023-04-25T21:13:52.003Z,1.88
2023-04-25T21:16:19.118Z,3.38
2023-04-25T21:18:46.049Z,3.97
2023-04-25T21:21:12.808Z,5.35
2023-04-25T21:23:39.621Z,5.00
2023-04-25T21:26:06.532Z,2.78
2023-04-25T21:28:33.230Z,5.75
2023-04-25T21:31:00.042Z,5.38
2023-04-25T21:33:27.028Z,2.60
2023-04-25T21:35:53.821Z,3.08
2023-04-25T21:38:20.577Z,3.92
2023-04-25T21:40:47.290Z,5.05
2023-04-25T21:43:14.283Z,3.83
2023-04-25T21:46:05.673Z,3.28
2023-04-25T21:48:27.983Z,4.13
2023-04-25T21:50:56.013Z,2.90
2023-04-25T21:53:38.851Z,3.35
2023-04-25T21:56:58.783Z,5.15
2023-04-25T21:59:38.660Z,4.03
2023-04-25T22:02:05.678Z,4.30
2023-04-25T22:04:32.785Z,4.22
2023-04-25T22:06:59.841Z,4.00
2023-04-25T22:09:26.579Z,4.78
2023-04-25T22:11:53.683Z,6.80
2023-04-25T22:14:21.344Z,5.47
2023-04-25T22:16:50.138Z,4.32
2023-04-25T22:19:17.251Z,5.05
2023-04-25T22:21:44.328Z,3.15
2023-04-25T22:24:11.050Z,3.15
2023-04-25T22:26:38.193Z,3.67
2023-04-25T22:29:05.144Z,5.45
2023-04-25T22:31:31.943Z,2.83
2023-04-25T22:33:58.807Z,3.88
2023-04-25T22:36:25.536Z,5.55
2023-04-25T22:38:53.297Z,4.72
2023-04-25T22:41:21.167Z,6.25
2023-04-25T22:43:48.003Z,5.15
2023-04-25T22:46:18.754Z,3.47
2023-04-25T22:48:46.414Z,4.38
2023-04-25T22:51:13.917Z,1.85
2023-04-25T22:53:42.251Z,4.88
2023-04-25T22:56:10.396Z,3.88
2023-04-25T22:58:40.231Z,7.13
2023-04-25T23:01:07.621Z,3.85
2023-04-25T23:03:34.692Z,3.28
2023-04-25T23:06:01.476Z,4.05
2023-04-25T23:08:28.188Z,5.75
2023-04-25T23:10:55.370Z,6.75
2023-04-25T23:13:22.373Z,5.55
2023-04-25T23:15:49.107Z,4.65
2023-04-25T23:18:15.929Z,7.35
2023-04-25T23:20:43.198Z,4.20
2023-04-25T23:23:10.181Z,3.28
2023-04-25T23:25:40.758Z,4.32
2023-04-25T23:28:07.966Z,2.38
2023-04-25T23:30:34.767Z,4.07
2023-04-25T23:33:01.576Z,6.28
2023-04-25T23:35:28.645Z,8.20
2023-04-25T23:37:55.895Z,3.05
2023-04-25T23:40:23.296Z,4.78
2023-04-25T23:42:50.044Z,6.78
2023-04-25T23:45:16.953Z,3.80
2023-04-25T23:47:43.764Z,3.55
2023-04-25T23:50:11.513Z,3.38
2023-04-25T23:52:39.014Z,4.03
2023-04-25T23:55:06.779Z,4.32
2023-04-25T23:57:33.930Z,4.80
